sensor_id;sensor_type;location;lat;lon;timestamp;temperature;humidity
65598;SHT31;52267;51.984;20.956;2022-09-09T00:00:54;11.72;80.01
65598;SHT31;52267;51.984;20.956;2022-09-09T00:03:37;11.73;78.85
65598;SHT31;52267;51.984;20.956;2022-09-09T00:06:23;11.74;78.86
65598;SHT31;52267;51.984;20.956;2022-09-09T00:09:17;11.72;78.87
65598;SHT31;52267;51.984;20.956;2022-09-09T00:14:51;11.73;79.36
65598;SHT31;52267;51.984;20.956;2022-09-09T00:17:35;11.72;79.26
65598;SHT31;52267;51.984;20.956;2022-09-09T00:20:30;11.72;79.62
65598;SHT31;52267;51.984;20.956;2022-09-09T00:23:10;11.76;79.39
65598;SHT31;52267;51.984;20.956;2022-09-09T00:28:27;11.73;80.44
65598;SHT31;52267;51.984;20.956;2022-09-09T00:31:13;11.75;80.29
65598;SHT31;52267;51.984;20.956;2022-09-09T00:33:47;11.77;79.94
65598;SHT31;52267;51.984;20.956;2022-09-09T00:36:17;11.78;79.72
65598;SHT31;52267;51.984;20.956;2022-09-09T00:38:49;11.80;80.80
65598;SHT31;52267;51.984;20.956;2022-09-09T00:41:43;11.81;80.42
65598;SHT31;52267;51.984;20.956;2022-09-09T00:47:19;11.83;80.30
65598;SHT31;52267;51.984;20.956;2022-09-09T00:50:05;11.84;81.06
65598;SHT31;52267;51.984;20.956;2022-09-09T00:58:51;11.90;80.09
65598;SHT31;52267;51.984;20.956;2022-09-09T01:01:29;11.94;79.94
65598;SHT31;52267;51.984;20.956;2022-09-09T01:03:56;11.96;80.47
65598;SHT31;52267;51.984;20.956;2022-09-09T01:06:30;11.96;80.25
65598;SHT31;52267;51.984;20.956;2022-09-09T01:09:12;11.95;80.56
65598;SHT31;52267;51.984;20.956;2022-09-09T01:12:14;11.98;80.32
65598;SHT31;52267;51.984;20.956;2022-09-09T01:14:49;11.95;80.56
65598;SHT31;52267;51.984;20.956;2022-09-09T01:17:24;11.97;80.17
65598;SHT31;52267;51.984;20.956;2022-09-09T01:20:23;11.97;80.30
65598;SHT31;52267;51.984;20.956;2022-09-09T01:28:45;12.02;80.28
65598;SHT31;52267;51.984;20.956;2022-09-09T01:31:23;12.04;80.64
65598;SHT31;52267;51.984;20.956;2022-09-09T01:33:57;12.06;80.58
65598;SHT31;52267;51.984;20.956;2022-09-09T01:39:10;12.08;81.06
65598;SHT31;52267;51.984;20.956;2022-09-09T01:41:38;12.11;81.72
65598;SHT31;52267;51.984;20.956;2022-09-09T01:44:05;12.12;81.46
65598;SHT31;52267;51.984;20.956;2022-09-09T01:46:34;12.11;81.76
65598;SHT31;52267;51.984;20.956;2022-09-09T01:49:02;12.09;81.22
65598;SHT31;52267;51.984;20.956;2022-09-09T01:51:31;12.11;80.55
65598;SHT31;52267;51.984;20.956;2022-09-09T01:54:00;12.12;81.07
65598;SHT31;52267;51.984;20.956;2022-09-09T02:02:48;12.10;81.40
65598;SHT31;52267;51.984;20.956;2022-09-09T02:08:53;12.09;81.23
65598;SHT31;52267;51.984;20.956;2022-09-09T02:11:24;12.09;81.36
65598;SHT31;52267;51.984;20.956;2022-09-09T02:13:54;12.11;81.70
65598;SHT31;52267;51.984;20.956;2022-09-09T02:16:40;12.11;81.73
65598;SHT31;52267;51.984;20.956;2022-09-09T02:19:18;12.12;81.74
65598;SHT31;52267;51.984;20.956;2022-09-09T02:22:19;12.14;81.65
65598;SHT31;52267;51.984;20.956;2022-09-09T02:24:49;12.16;81.46
65598;SHT31;52267;51.984;20.956;2022-09-09T02:27:21;12.19;81.41
65598;SHT31;52267;51.984;20.956;2022-09-09T02:29:49;12.20;81.25
65598;SHT31;52267;51.984;20.956;2022-09-09T02:32:19;12.20;81.55
65598;SHT31;52267;51.984;20.956;2022-09-09T02:35:23;12.21;81.79
65598;SHT31;52267;51.984;20.956;2022-09-09T02:37:46;12.22;81.93
65598;SHT31;52267;51.984;20.956;2022-09-09T02:40:13;12.23;81.93
65598;SHT31;52267;51.984;20.956;2022-09-09T02:42:42;12.25;81.93
65598;SHT31;52267;51.984;20.956;2022-09-09T02:45:18;12.27;82.00
65598;SHT31;52267;51.984;20.956;2022-09-09T02:47:55;12.29;82.22
65598;SHT31;52267;51.984;20.956;2022-09-09T02:50:33;12.30;82.25
65598;SHT31;52267;51.984;20.956;2022-09-09T02:55:48;12.31;82.05
65598;SHT31;52267;51.984;20.956;2022-09-09T02:58:24;12.32;82.05
65598;SHT31;52267;51.984;20.956;2022-09-09T03:00:51;12.35;82.13
65598;SHT31;52267;51.984;20.956;2022-09-09T03:03:19;12.41;82.07
65598;SHT31;52267;51.984;20.956;2022-09-09T03:05:48;12.41;82.35
65598;SHT31;52267;51.984;20.956;2022-09-09T03:08:15;12.39;82.73
65598;SHT31;52267;51.984;20.956;2022-09-09T03:10:43;12.39;82.59
65598;SHT31;52267;51.984;20.956;2022-09-09T03:13:10;12.39;82.27
65598;SHT31;52267;51.984;20.956;2022-09-09T03:15:39;12.41;82.29
65598;SHT31;52267;51.984;20.956;2022-09-09T03:18:06;12.40;82.58
65598;SHT31;52267;51.984;20.956;2022-09-09T03:20:33;12.39;82.26
65598;SHT31;52267;51.984;20.956;2022-09-09T03:23:00;12.39;82.02
65598;SHT31;52267;51.984;20.956;2022-09-09T03:25:28;12.38;82.34
65598;SHT31;52267;51.984;20.956;2022-09-09T03:27:56;12.38;82.66
65598;SHT31;52267;51.984;20.956;2022-09-09T03:30:23;12.38;82.86
65598;SHT31;52267;51.984;20.956;2022-09-09T03:32:53;12.35;83.20
65598;SHT31;52267;51.984;20.956;2022-09-09T03:35:21;12.36;82.76
65598;SHT31;52267;51.984;20.956;2022-09-09T03:37:48;12.31;82.87
65598;SHT31;52267;51.984;20.956;2022-09-09T03:40:15;12.32;82.67
65598;SHT31;52267;51.984;20.956;2022-09-09T03:42:42;12.32;82.67
65598;SHT31;52267;51.984;20.956;2022-09-09T03:45:09;12.31;82.81
65598;SHT31;52267;51.984;20.956;2022-09-09T03:47:37;12.33;82.78
65598;SHT31;52267;51.984;20.956;2022-09-09T03:50:04;12.36;82.86
65598;SHT31;52267;51.984;20.956;2022-09-09T03:52:35;12.37;82.82
65598;SHT31;52267;51.984;20.956;2022-09-09T03:55:04;12.36;82.86
65598;SHT31;52267;51.984;20.956;2022-09-09T04:11:15;12.81;85.03
65598;SHT31;52267;51.984;20.956;2022-09-09T04:13:42;12.71;84.90
65598;SHT31;52267;51.984;20.956;2022-09-09T04:16:11;12.63;85.11
65598;SHT31;52267;51.984;20.956;2022-09-09T04:18:41;12.61;84.69
65598;SHT31;52267;51.984;20.956;2022-09-09T04:21:09;12.57;84.46
65598;SHT31;52267;51.984;20.956;2022-09-09T04:23:38;12.53;84.00
65598;SHT31;52267;51.984;20.956;2022-09-09T04:26:05;12.51;84.08
65598;SHT31;52267;51.984;20.956;2022-09-09T04:28:33;12.49;84.26
65598;SHT31;52267;51.984;20.956;2022-09-09T04:31:07;12.49;84.15
65598;SHT31;52267;51.984;20.956;2022-09-09T04:33:37;12.51;84.25
65598;SHT31;52267;51.984;20.956;2022-09-09T04:36:05;12.53;84.04
65598;SHT31;52267;51.984;20.956;2022-09-09T04:38:34;12.53;83.94
65598;SHT31;52267;51.984;20.956;2022-09-09T04:41:02;12.51;83.94
65598;SHT31;52267;51.984;20.956;2022-09-09T04:43:29;12.50;83.86
65598;SHT31;52267;51.984;20.956;2022-09-09T04:45:57;12.51;83.90
65598;SHT31;52267;51.984;20.956;2022-09-09T04:48:25;12.52;83.74
65598;SHT31;52267;51.984;20.956;2022-09-09T04:51:06;12.52;83.57
65598;SHT31;52267;51.984;20.956;2022-09-09T04:53:35;12.51;83.77
65598;SHT31;52267;51.984;20.956;2022-09-09T04:56:03;12.53;83.87
65598;SHT31;52267;51.984;20.956;2022-09-09T04:58:33;12.51;83.88
65598;SHT31;52267;51.984;20.956;2022-09-09T05:01:06;12.52;84.05
65598;SHT31;52267;51.984;20.956;2022-09-09T05:03:39;12.49;84.13
65598;SHT31;52267;51.984;20.956;2022-09-09T05:06:07;12.47;84.14
65598;SHT31;52267;51.984;20.956;2022-09-09T05:08:37;12.49;84.06
65598;SHT31;52267;51.984;20.956;2022-09-09T05:11:19;12.54;83.97
65598;SHT31;52267;51.984;20.956;2022-09-09T05:13:52;12.58;84.07
65598;SHT31;52267;51.984;20.956;2022-09-09T05:16:20;12.60;83.98
65598;SHT31;52267;51.984;20.956;2022-09-09T05:18:49;12.62;83.94
65598;SHT31;52267;51.984;20.956;2022-09-09T05:21:18;12.63;83.86
65598;SHT31;52267;51.984;20.956;2022-09-09T05:23:47;12.60;84.14
65598;SHT31;52267;51.984;20.956;2022-09-09T05:26:15;12.63;84.13
65598;SHT31;52267;51.984;20.956;2022-09-09T05:28:44;12.65;84.19
65598;SHT31;52267;51.984;20.956;2022-09-09T05:31:13;12.63;84.58
65598;SHT31;52267;51.984;20.956;2022-09-09T05:33:43;12.65;84.35
65598;SHT31;52267;51.984;20.956;2022-09-09T05:36:13;12.67;84.29
65598;SHT31;52267;51.984;20.956;2022-09-09T05:38:45;12.69;84.33
65598;SHT31;52267;51.984;20.956;2022-09-09T05:41:13;12.72;84.21
65598;SHT31;52267;51.984;20.956;2022-09-09T05:43:44;12.75;84.14
65598;SHT31;52267;51.984;20.956;2022-09-09T05:46:12;12.79;84.06
65598;SHT31;52267;51.984;20.956;2022-09-09T05:48:43;12.80;84.11
65598;SHT31;52267;51.984;20.956;2022-09-09T05:51:15;12.81;84.03
65598;SHT31;52267;51.984;20.956;2022-09-09T05:53:48;12.83;84.15
65598;SHT31;52267;51.984;20.956;2022-09-09T05:56:18;12.84;84.27
65598;SHT31;52267;51.984;20.956;2022-09-09T05:58:54;12.85;84.73
65598;SHT31;52267;51.984;20.956;2022-09-09T06:01:25;12.84;84.51
65598;SHT31;52267;51.984;20.956;2022-09-09T06:03:59;12.88;84.26
65598;SHT31;52267;51.984;20.956;2022-09-09T06:06:27;12.90;84.35
65598;SHT31;52267;51.984;20.956;2022-09-09T06:09:03;12.94;84.35
65598;SHT31;52267;51.984;20.956;2022-09-09T06:11:38;12.95;84.40
65598;SHT31;52267;51.984;20.956;2022-09-09T06:14:06;12.98;84.44
65598;SHT31;52267;51.984;20.956;2022-09-09T06:16:34;13.00;84.66
65598;SHT31;52267;51.984;20.956;2022-09-09T06:19:03;13.01;84.51
65598;SHT31;52267;51.984;20.956;2022-09-09T06:21:32;13.02;84.52
65598;SHT31;52267;51.984;20.956;2022-09-09T06:24:05;13.04;84.49
65598;SHT31;52267;51.984;20.956;2022-09-09T06:26:37;13.04;84.76
65598;SHT31;52267;51.984;20.956;2022-09-09T06:29:09;13.07;84.54
65598;SHT31;52267;51.984;20.956;2022-09-09T06:31:36;13.11;84.52
65598;SHT31;52267;51.984;20.956;2022-09-09T06:34:07;13.14;84.49
65598;SHT31;52267;51.984;20.956;2022-09-09T06:36:35;13.19;84.40
65598;SHT31;52267;51.984;20.956;2022-09-09T06:39:05;13.23;84.56
65598;SHT31;52267;51.984;20.956;2022-09-09T06:41:34;13.23;84.49
65598;SHT31;52267;51.984;20.956;2022-09-09T06:44:04;13.30;84.48
65598;SHT31;52267;51.984;20.956;2022-09-09T06:46:32;13.35;84.43
65598;SHT31;52267;51.984;20.956;2022-09-09T06:49:00;13.35;84.51
65598;SHT31;52267;51.984;20.956;2022-09-09T06:51:30;13.39;84.36
65598;SHT31;52267;51.984;20.956;2022-09-09T06:54:01;13.43;84.35
65598;SHT31;52267;51.984;20.956;2022-09-09T06:56:35;13.48;84.18
65598;SHT31;52267;51.984;20.956;2022-09-09T06:59:06;13.52;84.12
65598;SHT31;52267;51.984;20.956;2022-09-09T07:01:36;13.56;84.07
65598;SHT31;52267;51.984;20.956;2022-09-09T07:04:07;13.61;83.98
65598;SHT31;52267;51.984;20.956;2022-09-09T07:06:40;13.62;84.15
65598;SHT31;52267;51.984;20.956;2022-09-09T07:09:11;13.66;84.20
65598;SHT31;52267;51.984;20.956;2022-09-09T07:11:44;13.70;84.08
65598;SHT31;52267;51.984;20.956;2022-09-09T07:14:16;13.78;84.03
65598;SHT31;52267;51.984;20.956;2022-09-09T07:16:43;13.83;84.10
65598;SHT31;52267;51.984;20.956;2022-09-09T07:19:12;13.91;84.10
65598;SHT31;52267;51.984;20.956;2022-09-09T07:21:41;13.99;84.04
65598;SHT31;52267;51.984;20.956;2022-09-09T07:24:10;14.04;83.94
65598;SHT31;52267;51.984;20.956;2022-09-09T07:26:39;14.04;84.21
65598;SHT31;52267;51.984;20.956;2022-09-09T07:29:08;14.07;84.30
65598;SHT31;52267;51.984;20.956;2022-09-09T07:31:38;14.09;84.16
65598;SHT31;52267;51.984;20.956;2022-09-09T07:34:08;14.09;84.03
65598;SHT31;52267;51.984;20.956;2022-09-09T07:36:38;14.11;84.21
65598;SHT31;52267;51.984;20.956;2022-09-09T07:39:09;14.17;84.09
65598;SHT31;52267;51.984;20.956;2022-09-09T07:41:43;14.21;84.23
65598;SHT31;52267;51.984;20.956;2022-09-09T07:44:19;14.22;84.79
65598;SHT31;52267;51.984;20.956;2022-09-09T07:46:49;14.27;84.45
65598;SHT31;52267;51.984;20.956;2022-09-09T07:49:16;14.36;84.21
65598;SHT31;52267;51.984;20.956;2022-09-09T07:51:45;14.43;84.02
65598;SHT31;52267;51.984;20.956;2022-09-09T07:54:22;14.44;84.04
65598;SHT31;52267;51.984;20.956;2022-09-09T07:56:52;14.44;84.09
65598;SHT31;52267;51.984;20.956;2022-09-09T07:59:19;14.45;83.82
65598;SHT31;52267;51.984;20.956;2022-09-09T08:01:48;14.46;83.74
65598;SHT31;52267;51.984;20.956;2022-09-09T08:04:24;14.48;83.87
65598;SHT31;52267;51.984;20.956;2022-09-09T08:06:54;14.53;83.96
65598;SHT31;52267;51.984;20.956;2022-09-09T08:09:28;14.61;83.82
65598;SHT31;52267;51.984;20.956;2022-09-09T08:11:56;14.61;83.84
65598;SHT31;52267;51.984;20.956;2022-09-09T08:14:24;14.65;83.79
65598;SHT31;52267;51.984;20.956;2022-09-09T08:16:53;14.73;83.71
65598;SHT31;52267;51.984;20.956;2022-09-09T08:19:21;14.79;83.54
65598;SHT31;52267;51.984;20.956;2022-09-09T08:21:48;14.82;83.49
65598;SHT31;52267;51.984;20.956;2022-09-09T08:24:17;14.81;84.01
65598;SHT31;52267;51.984;20.956;2022-09-09T08:26:46;14.83;83.85
65598;SHT31;52267;51.984;20.956;2022-09-09T08:29:20;14.86;83.61
65598;SHT31;52267;51.984;20.956;2022-09-09T08:31:48;14.88;83.76
65598;SHT31;52267;51.984;20.956;2022-09-09T08:34:21;14.90;83.85
65598;SHT31;52267;51.984;20.956;2022-09-09T08:36:49;14.96;83.80
65598;SHT31;52267;51.984;20.956;2022-09-09T08:39:19;14.96;84.14
65598;SHT31;52267;51.984;20.956;2022-09-09T08:41:57;14.98;84.11
65598;SHT31;52267;51.984;20.956;2022-09-09T08:51:27;15.10;83.94
65598;SHT31;52267;51.984;20.956;2022-09-09T08:54:11;15.14;83.96
65598;SHT31;52267;51.984;20.956;2022-09-09T08:56:39;15.11;84.39
65598;SHT31;52267;51.984;20.956;2022-09-09T08:59:07;15.12;84.39
65598;SHT31;52267;51.984;20.956;2022-09-09T09:01:51;15.18;83.98
65598;SHT31;52267;51.984;20.956;2022-09-09T09:10:19;15.20;84.30
65598;SHT31;52267;51.984;20.956;2022-09-09T09:13:03;15.23;83.92
65598;SHT31;52267;51.984;20.956;2022-09-09T09:15:33;15.30;83.49
65598;SHT31;52267;51.984;20.956;2022-09-09T09:18:04;15.33;83.40
65598;SHT31;52267;51.984;20.956;2022-09-09T09:20:39;15.36;83.65
65598;SHT31;52267;51.984;20.956;2022-09-09T09:23:25;15.41;83.76
65598;SHT31;52267;51.984;20.956;2022-09-09T09:26:20;15.53;83.50
65598;SHT31;52267;51.984;20.956;2022-09-09T09:28:56;15.63;83.23
65598;SHT31;52267;51.984;20.956;2022-09-09T09:31:28;15.71;83.26
65598;SHT31;52267;51.984;20.956;2022-09-09T09:33:55;15.81;83.01
65598;SHT31;52267;51.984;20.956;2022-09-09T09:36:32;15.85;82.82
65598;SHT31;52267;51.984;20.956;2022-09-09T09:39:08;15.88;83.02
65598;SHT31;52267;51.984;20.956;2022-09-09T09:41:38;15.81;83.41
65598;SHT31;52267;51.984;20.956;2022-09-09T09:44:22;15.81;83.37
65598;SHT31;52267;51.984;20.956;2022-09-09T09:46:50;15.89;83.17
65598;SHT31;52267;51.984;20.956;2022-09-09T09:49:18;15.94;82.90
65598;SHT31;52267;51.984;20.956;2022-09-09T09:51:45;15.96;82.79
65598;SHT31;52267;51.984;20.956;2022-09-09T09:54:21;16.00;82.70
65598;SHT31;52267;51.984;20.956;2022-09-09T09:57:14;16.02;82.72
65598;SHT31;52267;51.984;20.956;2022-09-09T09:59:43;16.01;82.72
65598;SHT31;52267;51.984;20.956;2022-09-09T10:04:46;16.02;83.16
65598;SHT31;52267;51.984;20.956;2022-09-09T10:07:18;15.97;83.21
65598;SHT31;52267;51.984;20.956;2022-09-09T10:09:54;15.95;83.53
65598;SHT31;52267;51.984;20.956;2022-09-09T10:19:09;16.00;83.14
65598;SHT31;52267;51.984;20.956;2022-09-09T10:22:19;16.03;82.92
65598;SHT31;52267;51.984;20.956;2022-09-09T10:28:05;16.02;83.00
65598;SHT31;52267;51.984;20.956;2022-09-09T10:31:19;16.06;82.98
65598;SHT31;52267;51.984;20.956;2022-09-09T10:36:52;16.10;82.86
65598;SHT31;52267;51.984;20.956;2022-09-09T10:42:15;16.09;83.16
65598;SHT31;52267;51.984;20.956;2022-09-09T10:47:59;16.10;83.25
65598;SHT31;52267;51.984;20.956;2022-09-09T10:57:00;16.15;82.81
65598;SHT31;52267;51.984;20.956;2022-09-09T10:59:52;16.13;82.61
65598;SHT31;52267;51.984;20.956;2022-09-09T11:05:02;16.14;82.77
65598;SHT31;52267;51.984;20.956;2022-09-09T11:13:21;16.23;82.84
65598;SHT31;52267;51.984;20.956;2022-09-09T11:22:01;16.24;82.92
65598;SHT31;52267;51.984;20.956;2022-09-09T11:25:15;16.25;83.00
65598;SHT31;52267;51.984;20.956;2022-09-09T11:28:18;16.24;82.80
65598;SHT31;52267;51.984;20.956;2022-09-09T11:40:23;16.23;83.11
65598;SHT31;52267;51.984;20.956;2022-09-09T11:45:51;16.13;83.31
65598;SHT31;52267;51.984;20.956;2022-09-09T11:48:37;16.12;83.16
65598;SHT31;52267;51.984;20.956;2022-09-09T11:51:10;16.14;83.22
65598;SHT31;52267;51.984;20.956;2022-09-09T11:53:58;16.16;83.31
65598;SHT31;52267;51.984;20.956;2022-09-09T11:56:52;16.21;83.67
65598;SHT31;52267;51.984;20.956;2022-09-09T11:59:22;16.21;83.86
65598;SHT31;52267;51.984;20.956;2022-09-09T12:07:52;16.30;83.78
65598;SHT31;52267;51.984;20.956;2022-09-09T12:13:35;16.30;83.86
65598;SHT31;52267;51.984;20.956;2022-09-09T12:15:56;16.26;83.80
65598;SHT31;52267;51.984;20.956;2022-09-09T12:18:33;16.27;83.68
65598;SHT31;52267;51.984;20.956;2022-09-09T12:24:13;16.29;83.61
65598;SHT31;52267;51.984;20.956;2022-09-09T12:26:58;16.26;83.77
65598;SHT31;52267;51.984;20.956;2022-09-09T12:32:39;16.27;83.68
65598;SHT31;52267;51.984;20.956;2022-09-09T12:40:29;16.27;83.78
65598;SHT31;52267;51.984;20.956;2022-09-09T12:43:19;16.30;83.82
65598;SHT31;52267;51.984;20.956;2022-09-09T12:46:07;16.34;84.08
65598;SHT31;52267;51.984;20.956;2022-09-09T12:48:44;16.40;83.89
65598;SHT31;52267;51.984;20.956;2022-09-09T12:51:18;16.39;83.68
65598;SHT31;52267;51.984;20.956;2022-09-09T12:53:52;16.35;83.86
65598;SHT31;52267;51.984;20.956;2022-09-09T12:56:27;16.36;83.76
65598;SHT31;52267;51.984;20.956;2022-09-09T12:58:58;16.38;83.70
65598;SHT31;52267;51.984;20.956;2022-09-09T13:01:30;16.42;83.70
65598;SHT31;52267;51.984;20.956;2022-09-09T13:04:19;16.48;83.67
65598;SHT31;52267;51.984;20.956;2022-09-09T13:06:48;16.53;83.67
65598;SHT31;52267;51.984;20.956;2022-09-09T13:09:17;16.54;83.51
65598;SHT31;52267;51.984;20.956;2022-09-09T13:11:52;16.57;83.60
65598;SHT31;52267;51.984;20.956;2022-09-09T13:14:28;16.57;83.53
65598;SHT31;52267;51.984;20.956;2022-09-09T13:17:02;16.57;83.58
65598;SHT31;52267;51.984;20.956;2022-09-09T13:19:35;16.64;83.73
65598;SHT31;52267;51.984;20.956;2022-09-09T13:22:13;16.62;83.62
65598;SHT31;52267;51.984;20.956;2022-09-09T13:27:38;16.56;83.65
65598;SHT31;52267;51.984;20.956;2022-09-09T13:33:05;16.40;83.66
65598;SHT31;52267;51.984;20.956;2022-09-09T13:38:25;16.23;83.82
65598;SHT31;52267;51.984;20.956;2022-09-09T13:43:26;16.11;84.36
65598;SHT31;52267;51.984;20.956;2022-09-09T13:45:59;16.11;84.16
65598;SHT31;52267;51.984;20.956;2022-09-09T13:48:31;16.09;84.10
65598;SHT31;52267;51.984;20.956;2022-09-09T13:51:00;16.09;84.21
65598;SHT31;52267;51.984;20.956;2022-09-09T13:53:33;16.06;84.26
65598;SHT31;52267;51.984;20.956;2022-09-09T13:56:02;16.04;84.26
65598;SHT31;52267;51.984;20.956;2022-09-09T13:58:30;16.02;84.29
65598;SHT31;52267;51.984;20.956;2022-09-09T14:01:01;16.00;84.44
65598;SHT31;52267;51.984;20.956;2022-09-09T14:03:29;15.97;84.40
65598;SHT31;52267;51.984;20.956;2022-09-09T14:05:57;15.98;84.39
65598;SHT31;52267;51.984;20.956;2022-09-09T14:08:43;15.99;84.64
65598;SHT31;52267;51.984;20.956;2022-09-09T14:11:17;15.97;84.63
65598;SHT31;52267;51.984;20.956;2022-09-09T14:13:59;15.96;84.86
65598;SHT31;52267;51.984;20.956;2022-09-09T14:16:45;15.95;84.85
65598;SHT31;52267;51.984;20.956;2022-09-09T14:19:14;15.97;84.70
65598;SHT31;52267;51.984;20.956;2022-09-09T14:21:47;15.96;84.65
65598;SHT31;52267;51.984;20.956;2022-09-09T14:24:16;15.94;84.70
65598;SHT31;52267;51.984;20.956;2022-09-09T14:26:44;15.93;84.79
65598;SHT31;52267;51.984;20.956;2022-09-09T14:29:13;15.98;84.67
65598;SHT31;52267;51.984;20.956;2022-09-09T14:31:41;16.03;84.68
65598;SHT31;52267;51.984;20.956;2022-09-09T14:34:12;16.03;84.78
65598;SHT31;52267;51.984;20.956;2022-09-09T14:36:42;16.07;84.78
65598;SHT31;52267;51.984;20.956;2022-09-09T14:39:11;16.12;84.73
65598;SHT31;52267;51.984;20.956;2022-09-09T14:41:50;16.19;85.01
65598;SHT31;52267;51.984;20.956;2022-09-09T14:44:18;16.23;84.58
65598;SHT31;52267;51.984;20.956;2022-09-09T14:46:47;16.25;84.70
65598;SHT31;52267;51.984;20.956;2022-09-09T14:49:16;16.31;84.85
65598;SHT31;52267;51.984;20.956;2022-09-09T14:51:43;16.38;84.97
65598;SHT31;52267;51.984;20.956;2022-09-09T14:54:10;16.42;84.90
65598;SHT31;52267;51.984;20.956;2022-09-09T14:56:37;16.44;84.81
65598;SHT31;52267;51.984;20.956;2022-09-09T14:59:04;16.42;84.69
65598;SHT31;52267;51.984;20.956;2022-09-09T15:01:31;16.41;84.61
65598;SHT31;52267;51.984;20.956;2022-09-09T15:04:02;16.35;84.46
65598;SHT31;52267;51.984;20.956;2022-09-09T15:06:33;16.26;84.72
65598;SHT31;52267;51.984;20.956;2022-09-09T15:09:03;16.25;84.82
65598;SHT31;52267;51.984;20.956;2022-09-09T15:11:32;16.23;84.87
65598;SHT31;52267;51.984;20.956;2022-09-09T15:14:04;16.16;84.83
65598;SHT31;52267;51.984;20.956;2022-09-09T15:16:33;16.14;84.76
65598;SHT31;52267;51.984;20.956;2022-09-09T15:19:01;16.15;84.78
65598;SHT31;52267;51.984;20.956;2022-09-09T15:21:33;16.15;84.91
65598;SHT31;52267;51.984;20.956;2022-09-09T15:24:02;16.18;84.89
65598;SHT31;52267;51.984;20.956;2022-09-09T15:26:30;16.24;84.72
65598;SHT31;52267;51.984;20.956;2022-09-09T15:28:58;16.28;84.72
65598;SHT31;52267;51.984;20.956;2022-09-09T15:31:29;16.30;84.62
65598;SHT31;52267;51.984;20.956;2022-09-09T15:33:58;16.29;84.90
65598;SHT31;52267;51.984;20.956;2022-09-09T15:36:32;16.27;84.80
65598;SHT31;52267;51.984;20.956;2022-09-09T15:39:05;16.27;84.88
65598;SHT31;52267;51.984;20.956;2022-09-09T15:41:36;16.25;84.75
65598;SHT31;52267;51.984;20.956;2022-09-09T15:44:02;16.19;84.81
65598;SHT31;52267;51.984;20.956;2022-09-09T15:46:30;16.18;84.76
65598;SHT31;52267;51.984;20.956;2022-09-09T15:49:09;16.18;84.81
65598;SHT31;52267;51.984;20.956;2022-09-09T15:51:38;16.18;84.78
65598;SHT31;52267;51.984;20.956;2022-09-09T15:54:12;16.19;84.79
65598;SHT31;52267;51.984;20.956;2022-09-09T15:56:43;16.17;84.79
65598;SHT31;52267;51.984;20.956;2022-09-09T15:59:15;16.14;84.57
65598;SHT31;52267;51.984;20.956;2022-09-09T16:01:42;16.10;84.54
65598;SHT31;52267;51.984;20.956;2022-09-09T16:04:10;16.06;84.54
65598;SHT31;52267;51.984;20.956;2022-09-09T16:06:37;16.01;84.57
65598;SHT31;52267;51.984;20.956;2022-09-09T16:09:06;16.00;84.56
65598;SHT31;52267;51.984;20.956;2022-09-09T16:11:34;15.98;84.62
65598;SHT31;52267;51.984;20.956;2022-09-09T16:14:04;15.91;84.82
65598;SHT31;52267;51.984;20.956;2022-09-09T16:16:32;15.85;84.89
65598;SHT31;52267;51.984;20.956;2022-09-09T16:19:11;15.85;84.80
65598;SHT31;52267;51.984;20.956;2022-09-09T16:21:40;15.87;84.79
65598;SHT31;52267;51.984;20.956;2022-09-09T16:24:16;15.87;84.86
65598;SHT31;52267;51.984;20.956;2022-09-09T16:26:49;15.88;84.85
65598;SHT31;52267;51.984;20.956;2022-09-09T16:29:20;15.89;84.89
65598;SHT31;52267;51.984;20.956;2022-09-09T16:31:49;15.86;84.81
65598;SHT31;52267;51.984;20.956;2022-09-09T16:34:16;15.86;84.86
65598;SHT31;52267;51.984;20.956;2022-09-09T16:36:45;15.81;84.85
65598;SHT31;52267;51.984;20.956;2022-09-09T16:39:14;15.76;84.91
65598;SHT31;52267;51.984;20.956;2022-09-09T16:41:45;15.75;85.08
65598;SHT31;52267;51.984;20.956;2022-09-09T16:44:14;15.72;85.16
65598;SHT31;52267;51.984;20.956;2022-09-09T16:46:45;15.69;85.13
65598;SHT31;52267;51.984;20.956;2022-09-09T16:49:15;15.64;85.33
65598;SHT31;52267;51.984;20.956;2022-09-09T16:51:44;15.64;85.19
65598;SHT31;52267;51.984;20.956;2022-09-09T16:54:13;15.62;85.21
65598;SHT31;52267;51.984;20.956;2022-09-09T16:56:43;15.63;85.20
65598;SHT31;52267;51.984;20.956;2022-09-09T16:59:17;15.63;85.20
65598;SHT31;52267;51.984;20.956;2022-09-09T17:01:48;15.65;85.09
65598;SHT31;52267;51.984;20.956;2022-09-09T17:04:18;15.64;85.09
65598;SHT31;52267;51.984;20.956;2022-09-09T17:06:51;15.60;85.18
65598;SHT31;52267;51.984;20.956;2022-09-09T17:09:20;15.55;85.27
65598;SHT31;52267;51.984;20.956;2022-09-09T17:11:49;15.52;85.37
65598;SHT31;52267;51.984;20.956;2022-09-09T17:14:18;15.47;85.39
65598;SHT31;52267;51.984;20.956;2022-09-09T17:16:47;15.45;85.39
65598;SHT31;52267;51.984;20.956;2022-09-09T17:19:15;15.44;85.45
65598;SHT31;52267;51.984;20.956;2022-09-09T17:21:42;15.38;85.53
65598;SHT31;52267;51.984;20.956;2022-09-09T17:24:10;15.35;85.43
65598;SHT31;52267;51.984;20.956;2022-09-09T17:26:37;15.31;85.44
65598;SHT31;52267;51.984;20.956;2022-09-09T17:29:06;15.28;85.47
65598;SHT31;52267;51.984;20.956;2022-09-09T17:31:32;15.25;85.60
65598;SHT31;52267;51.984;20.956;2022-09-09T17:34:00;15.25;85.57
65598;SHT31;52267;51.984;20.956;2022-09-09T17:36:28;15.24;85.44
65598;SHT31;52267;51.984;20.956;2022-09-09T17:38:58;15.21;85.64
65598;SHT31;52267;51.984;20.956;2022-09-09T17:41:27;15.21;85.70
65598;SHT31;52267;51.984;20.956;2022-09-09T17:43:58;15.15;85.89
65598;SHT31;52267;51.984;20.956;2022-09-09T17:46:26;15.08;86.29
65598;SHT31;52267;51.984;20.956;2022-09-09T17:49:05;15.08;86.04
65598;SHT31;52267;51.984;20.956;2022-09-09T17:51:38;15.07;85.99
65598;SHT31;52267;51.984;20.956;2022-09-09T17:54:09;15.04;86.10
65598;SHT31;52267;51.984;20.956;2022-09-09T17:56:45;15.00;86.16
65598;SHT31;52267;51.984;20.956;2022-09-09T17:59:13;14.97;86.08
65598;SHT31;52267;51.984;20.956;2022-09-09T18:01:43;14.98;86.06
65598;SHT31;52267;51.984;20.956;2022-09-09T18:04:14;14.94;86.16
65598;SHT31;52267;51.984;20.956;2022-09-09T18:06:43;14.93;86.14
65598;SHT31;52267;51.984;20.956;2022-09-09T18:09:18;14.92;86.14
65598;SHT31;52267;51.984;20.956;2022-09-09T18:11:49;14.92;86.15
65598;SHT31;52267;51.984;20.956;2022-09-09T18:14:22;14.94;86.21
65598;SHT31;52267;51.984;20.956;2022-09-09T18:16:53;14.91;86.26